sensor_id;sensor_type;location;lat;lon;timestamp;temperature;humidity
12833;DHT22;6483;51.310;4.462;2022-08-03T00:44:51;32.60;90.00
12833;DHT22;6483;51.310;4.462;2022-08-03T00:47:17;17.60;99.90
12833;DHT22;6483;51.310;4.462;2022-08-03T00:49:43;17.40;99.90
12833;DHT22;6483;51.310;4.462;2022-08-03T00:52:09;17.30;99.90
12833;DHT22;6483;51.310;4.462;2022-08-03T00:54:38;17.30;99.90
12833;DHT22;6483;51.310;4.462;2022-08-03T00:57:04;17.30;99.90
12833;DHT22;6483;51.310;4.462;2022-08-03T00:59:29;17.30;99.90
12833;DHT22;6483;51.310;4.462;2022-08-03T01:02:13;17.30;99.90
12833;DHT22;6483;51.310;4.462;2022-08-03T01:04:39;17.30;99.90
12833;DHT22;6483;51.310;4.462;2022-08-03T01:07:20;17.20;99.90
12833;DHT22;6483;51.310;4.462;2022-08-03T01:13:14;17.10;99.90
12833;DHT22;6483;51.310;4.462;2022-08-03T01:15:45;17.10;99.90
12833;DHT22;6483;51.310;4.462;2022-08-03T01:18:57;17.10;99.90
12833;DHT22;6483;51.310;4.462;2022-08-03T01:21:12;17.10;99.90
12833;DHT22;6483;51.310;4.462;2022-08-03T01:30:02;17.00;99.90
12833;DHT22;6483;51.310;4.462;2022-08-03T01:32:51;17.00;99.90
12833;DHT22;6483;51.310;4.462;2022-08-03T01:35:26;17.00;99.90
12833;DHT22;6483;51.310;4.462;2022-08-03T01:37:56;16.90;99.90
12833;DHT22;6483;51.310;4.462;2022-08-03T01:40:30;16.90;99.90
12833;DHT22;6483;51.310;4.462;2022-08-03T01:42:59;16.90;99.90
12833;DHT22;6483;51.310;4.462;2022-08-03T01:45:27;16.90;99.90
12833;DHT22;6483;51.310;4.462;2022-08-03T01:47:54;16.80;99.90
12833;DHT22;6483;51.310;4.462;2022-08-03T01:50:24;16.90;99.90
12833;DHT22;6483;51.310;4.462;2022-08-03T01:52:52;16.80;99.90
12833;DHT22;6483;51.310;4.462;2022-08-03T01:55:20;16.80;99.90
12833;DHT22;6483;51.310;4.462;2022-08-03T01:57:48;16.80;99.90
12833;DHT22;6483;51.310;4.462;2022-08-03T02:00:15;16.80;99.90
12833;DHT22;6483;51.310;4.462;2022-08-03T02:02:43;16.80;99.90
12833;DHT22;6483;51.310;4.462;2022-08-03T02:05:10;16.80;99.90
12833;DHT22;6483;51.310;4.462;2022-08-03T02:07:40;16.70;99.90
12833;DHT22;6483;51.310;4.462;2022-08-03T02:10:14;16.80;99.90
12833;DHT22;6483;51.310;4.462;2022-08-03T02:12:42;16.80;99.90
12833;DHT22;6483;51.310;4.462;2022-08-03T02:15:11;16.80;99.90
12833;DHT22;6483;51.310;4.462;2022-08-03T02:17:37;16.80;99.90
12833;DHT22;6483;51.310;4.462;2022-08-03T02:20:04;16.80;99.90
12833;DHT22;6483;51.310;4.462;2022-08-03T02:22:35;16.80;99.90
12833;DHT22;6483;51.310;4.462;2022-08-03T02:25:05;16.80;99.90
12833;DHT22;6483;51.310;4.462;2022-08-03T02:27:33;16.70;99.90
12833;DHT22;6483;51.310;4.462;2022-08-03T02:30:07;16.70;99.90
12833;DHT22;6483;51.310;4.462;2022-08-03T02:32:39;16.70;99.90
12833;DHT22;6483;51.310;4.462;2022-08-03T02:35:09;16.70;99.90
12833;DHT22;6483;51.310;4.462;2022-08-03T02:37:42;16.70;99.90
12833;DHT22;6483;51.310;4.462;2022-08-03T02:40:09;16.70;99.90
12833;DHT22;6483;51.310;4.462;2022-08-03T02:42:37;16.60;99.90
12833;DHT22;6483;51.310;4.462;2022-08-03T02:45:09;16.70;99.90
12833;DHT22;6483;51.310;4.462;2022-08-03T02:47:45;16.60;99.90
12833;DHT22;6483;51.310;4.462;2022-08-03T02:50:15;16.60;99.90
12833;DHT22;6483;51.310;4.462;2022-08-03T02:52:55;16.60;99.90
12833;DHT22;6483;51.310;4.462;2022-08-03T02:55:22;16.60;99.90
12833;DHT22;6483;51.310;4.462;2022-08-03T02:57:52;16.60;99.90
12833;DHT22;6483;51.310;4.462;2022-08-03T03:00:20;16.60;99.90
12833;DHT22;6483;51.310;4.462;2022-08-03T03:02:49;16.60;99.90
12833;DHT22;6483;51.310;4.462;2022-08-03T03:05:16;16.50;99.90
12833;DHT22;6483;51.310;4.462;2022-08-03T03:07:43;16.50;99.90
12833;DHT22;6483;51.310;4.462;2022-08-03T03:10:10;16.50;99.90
12833;DHT22;6483;51.310;4.462;2022-08-03T03:12:37;16.50;99.90
12833;DHT22;6483;51.310;4.462;2022-08-03T03:15:07;16.50;99.90
12833;DHT22;6483;51.310;4.462;2022-08-03T03:17:34;16.50;99.90
12833;DHT22;6483;51.310;4.462;2022-08-03T03:20:02;16.60;99.90
12833;DHT22;6483;51.310;4.462;2022-08-03T03:22:33;16.60;99.90
12833;DHT22;6483;51.310;4.462;2022-08-03T03:25:00;16.70;99.90
12833;DHT22;6483;51.310;4.462;2022-08-03T03:27:27;16.70;99.90
12833;DHT22;6483;51.310;4.462;2022-08-03T03:29:53;16.70;99.90
12833;DHT22;6483;51.310;4.462;2022-08-03T03:32:19;16.80;99.90
12833;DHT22;6483;51.310;4.462;2022-08-03T03:34:50;17.00;99.90
12833;DHT22;6483;51.310;4.462;2022-08-03T03:37:17;17.00;99.90
12833;DHT22;6483;51.310;4.462;2022-08-03T03:39:43;17.00;99.90
12833;DHT22;6483;51.310;4.462;2022-08-03T03:42:12;17.00;99.90
12833;DHT22;6483;51.310;4.462;2022-08-03T03:44:37;17.00;99.90
12833;DHT22;6483;51.310;4.462;2022-08-03T03:47:03;17.00;99.90
12833;DHT22;6483;51.310;4.462;2022-08-03T03:49:31;17.10;99.90
12833;DHT22;6483;51.310;4.462;2022-08-03T03:51:59;17.00;99.90
12833;DHT22;6483;51.310;4.462;2022-08-03T03:54:25;17.10;99.90
12833;DHT22;6483;51.310;4.462;2022-08-03T03:56:51;17.00;99.90
12833;DHT22;6483;51.310;4.462;2022-08-03T03:59:17;17.00;99.90
12833;DHT22;6483;51.310;4.462;2022-08-03T04:01:42;17.00;99.90
12833;DHT22;6483;51.310;4.462;2022-08-03T04:04:08;17.00;99.90
12833;DHT22;6483;51.310;4.462;2022-08-03T04:06:52;17.10;99.90
12833;DHT22;6483;51.310;4.462;2022-08-03T04:09:56;17.10;99.90
12833;DHT22;6483;51.310;4.462;2022-08-03T04:12:41;17.10;99.90
12833;DHT22;6483;51.310;4.462;2022-08-03T04:15:09;17.10;99.90
12833;DHT22;6483;51.310;4.462;2022-08-03T04:17:37;17.20;99.90
12833;DHT22;6483;51.310;4.462;2022-08-03T04:20:04;17.30;99.90
12833;DHT22;6483;51.310;4.462;2022-08-03T04:22:35;17.40;99.90
12833;DHT22;6483;51.310;4.462;2022-08-03T04:25:04;17.40;99.90
12833;DHT22;6483;51.310;4.462;2022-08-03T04:27:38;17.40;99.90
12833;DHT22;6483;51.310;4.462;2022-08-03T04:30:05;17.40;99.90
12833;DHT22;6483;51.310;4.462;2022-08-03T04:32:36;17.40;99.90
12833;DHT22;6483;51.310;4.462;2022-08-03T04:35:07;17.40;99.90
12833;DHT22;6483;51.310;4.462;2022-08-03T04:37:42;17.40;99.90
12833;DHT22;6483;51.310;4.462;2022-08-03T04:40:19;17.40;99.90
12833;DHT22;6483;51.310;4.462;2022-08-03T04:42:50;17.50;99.90
12833;DHT22;6483;51.310;4.462;2022-08-03T04:45:22;17.60;99.90
12833;DHT22;6483;51.310;4.462;2022-08-03T04:47:52;17.60;99.90
12833;DHT22;6483;51.310;4.462;2022-08-03T04:50:19;17.70;99.90
12833;DHT22;6483;51.310;4.462;2022-08-03T04:52:46;17.80;99.90
12833;DHT22;6483;51.310;4.462;2022-08-03T04:55:27;17.90;99.90
12833;DHT22;6483;51.310;4.462;2022-08-03T04:57:56;16.90;99.90
12833;DHT22;6483;51.310;4.462;2022-08-03T05:00:23;18.00;99.90
12833;DHT22;6483;51.310;4.462;2022-08-03T05:02:49;18.10;99.90
12833;DHT22;6483;51.310;4.462;2022-08-03T05:05:16;18.20;99.90
12833;DHT22;6483;51.310;4.462;2022-08-03T05:07:41;18.30;99.90
12833;DHT22;6483;51.310;4.462;2022-08-03T05:10:10;18.40;99.90
12833;DHT22;6483;51.310;4.462;2022-08-03T05:12:36;18.50;99.90
12833;DHT22;6483;51.310;4.462;2022-08-03T05:15:05;18.60;99.90
12833;DHT22;6483;51.310;4.462;2022-08-03T05:17:31;18.80;99.90
12833;DHT22;6483;51.310;4.462;2022-08-03T05:20:02;19.00;99.90
12833;DHT22;6483;51.310;4.462;2022-08-03T05:22:29;19.10;99.90
12833;DHT22;6483;51.310;4.462;2022-08-03T05:24:57;19.20;99.90
12833;DHT22;6483;51.310;4.462;2022-08-03T05:27:23;19.30;99.90
12833;DHT22;6483;51.310;4.462;2022-08-03T05:29:52;19.40;99.90
12833;DHT22;6483;51.310;4.462;2022-08-03T05:32:21;19.60;99.90
12833;DHT22;6483;51.310;4.462;2022-08-03T05:34:53;19.70;99.90
12833;DHT22;6483;51.310;4.462;2022-08-03T05:37:19;19.80;99.90
12833;DHT22;6483;51.310;4.462;2022-08-03T05:39:44;19.80;99.90
12833;DHT22;6483;51.310;4.462;2022-08-03T05:42:10;19.90;99.90
12833;DHT22;6483;51.310;4.462;2022-08-03T05:44:36;20.00;99.90
12833;DHT22;6483;51.310;4.462;2022-08-03T05:47:04;20.00;99.90
12833;DHT22;6483;51.310;4.462;2022-08-03T05:49:29;20.20;99.90
12833;DHT22;6483;51.310;4.462;2022-08-03T05:51:55;20.20;99.90
12833;DHT22;6483;51.310;4.462;2022-08-03T05:54:20;20.30;99.90
12833;DHT22;6483;51.310;4.462;2022-08-03T05:56:47;20.30;99.90
12833;DHT22;6483;51.310;4.462;2022-08-03T05:59:15;20.40;99.90
12833;DHT22;6483;51.310;4.462;2022-08-03T06:01:40;20.50;99.90
12833;DHT22;6483;51.310;4.462;2022-08-03T06:04:06;20.50;99.90
12833;DHT22;6483;51.310;4.462;2022-08-03T06:06:34;20.60;99.90
12833;DHT22;6483;51.310;4.462;2022-08-03T06:09:00;20.70;99.90
12833;DHT22;6483;51.310;4.462;2022-08-03T06:11:25;20.80;99.90
12833;DHT22;6483;51.310;4.462;2022-08-03T06:13:51;20.70;99.90
12833;DHT22;6483;51.310;4.462;2022-08-03T06:16:19;20.80;99.90
12833;DHT22;6483;51.310;4.462;2022-08-03T06:18:48;20.90;99.90
12833;DHT22;6483;51.310;4.462;2022-08-03T06:21:18;20.90;99.90
12833;DHT22;6483;51.310;4.462;2022-08-03T06:23:44;21.10;99.90
12833;DHT22;6483;51.310;4.462;2022-08-03T06:26:10;21.10;99.90
12833;DHT22;6483;51.310;4.462;2022-08-03T06:28:36;21.20;99.90
12833;DHT22;6483;51.310;4.462;2022-08-03T06:31:02;21.20;99.90
12833;DHT22;6483;51.310;4.462;2022-08-03T06:33:28;21.20;99.90
12833;DHT22;6483;51.310;4.462;2022-08-03T06:35:57;21.30;99.90
12833;DHT22;6483;51.310;4.462;2022-08-03T06:38:22;21.30;99.90
12833;DHT22;6483;51.310;4.462;2022-08-03T06:40:51;21.30;99.90
12833;DHT22;6483;51.310;4.462;2022-08-03T06:43:20;21.40;99.90
12833;DHT22;6483;51.310;4.462;2022-08-03T06:45:45;21.50;99.90
12833;DHT22;6483;51.310;4.462;2022-08-03T06:48:14;21.60;99.90
12833;DHT22;6483;51.310;4.462;2022-08-03T06:50:41;21.70;99.90
12833;DHT22;6483;51.310;4.462;2022-08-03T06:53:11;21.80;99.90
12833;DHT22;6483;51.310;4.462;2022-08-03T06:55:37;21.90;99.90
12833;DHT22;6483;51.310;4.462;2022-08-03T06:58:02;21.90;99.90
12833;DHT22;6483;51.310;4.462;2022-08-03T07:00:28;21.90;99.90
12833;DHT22;6483;51.310;4.462;2022-08-03T07:02:55;21.90;99.90
12833;DHT22;6483;51.310;4.462;2022-08-03T07:05:24;22.00;99.90
12833;DHT22;6483;51.310;4.462;2022-08-03T07:07:53;22.10;99.90
12833;DHT22;6483;51.310;4.462;2022-08-03T07:10:18;22.10;99.90
12833;DHT22;6483;51.310;4.462;2022-08-03T07:12:47;22.20;99.90
12833;DHT22;6483;51.310;4.462;2022-08-03T07:15:16;22.30;99.90
12833;DHT22;6483;51.310;4.462;2022-08-03T07:17:45;22.30;99.90
12833;DHT22;6483;51.310;4.462;2022-08-03T07:20:10;22.30;99.90
12833;DHT22;6483;51.310;4.462;2022-08-03T07:22:38;22.40;99.90
12833;DHT22;6483;51.310;4.462;2022-08-03T07:25:07;22.50;99.90
12833;DHT22;6483;51.310;4.462;2022-08-03T07:27:32;22.50;99.90
12833;DHT22;6483;51.310;4.462;2022-08-03T07:30:00;22.60;99.90
12833;DHT22;6483;51.310;4.462;2022-08-03T07:32:28;22.70;99.90
12833;DHT22;6483;51.310;4.462;2022-08-03T07:34:56;22.90;99.90
12833;DHT22;6483;51.310;4.462;2022-08-03T07:37:24;23.00;99.90
12833;DHT22;6483;51.310;4.462;2022-08-03T07:39:50;23.00;99.90
12833;DHT22;6483;51.310;4.462;2022-08-03T07:42:19;23.10;99.90
12833;DHT22;6483;51.310;4.462;2022-08-03T07:44:45;23.20;99.90
12833;DHT22;6483;51.310;4.462;2022-08-03T07:47:16;23.30;99.90
12833;DHT22;6483;51.310;4.462;2022-08-03T07:49:42;23.50;99.90
12833;DHT22;6483;51.310;4.462;2022-08-03T07:52:11;23.50;99.90
12833;DHT22;6483;51.310;4.462;2022-08-03T07:54:55;23.60;99.90
12833;DHT22;6483;51.310;4.462;2022-08-03T07:57:24;23.70;99.90
12833;DHT22;6483;51.310;4.462;2022-08-03T07:59:49;23.80;99.90
12833;DHT22;6483;51.310;4.462;2022-08-03T08:02:18;23.80;99.90
12833;DHT22;6483;51.310;4.462;2022-08-03T08:04:47;23.90;99.90
12833;DHT22;6483;51.310;4.462;2022-08-03T08:07:12;24.20;99.90
12833;DHT22;6483;51.310;4.462;2022-08-03T08:09:41;24.90;99.90
12833;DHT22;6483;51.310;4.462;2022-08-03T08:12:07;25.10;99.90
12833;DHT22;6483;51.310;4.462;2022-08-03T08:14:37;25.50;99.90
12833;DHT22;6483;51.310;4.462;2022-08-03T08:17:02;26.10;99.90
12833;DHT22;6483;51.310;4.462;2022-08-03T08:19:28;26.60;99.90
12833;DHT22;6483;51.310;4.462;2022-08-03T08:21:53;27.20;99.90
12833;DHT22;6483;51.310;4.462;2022-08-03T08:24:37;27.70;99.90
12833;DHT22;6483;51.310;4.462;2022-08-03T08:27:03;27.80;99.90
12833;DHT22;6483;51.310;4.462;2022-08-03T08:29:29;27.70;99.90
12833;DHT22;6483;51.310;4.462;2022-08-03T08:32:04;27.70;99.90
12833;DHT22;6483;51.310;4.462;2022-08-03T08:34:30;27.50;99.90
12833;DHT22;6483;51.310;4.462;2022-08-03T08:36:56;27.90;99.90
12833;DHT22;6483;51.310;4.462;2022-08-03T08:39:23;28.00;99.90
12833;DHT22;6483;51.310;4.462;2022-08-03T08:41:54;28.00;99.90
12833;DHT22;6483;51.310;4.462;2022-08-03T08:44:19;28.70;99.90
12833;DHT22;6483;51.310;4.462;2022-08-03T08:46:49;28.30;99.90
12833;DHT22;6483;51.310;4.462;2022-08-03T08:49:17;28.60;99.90
12833;DHT22;6483;51.310;4.462;2022-08-03T08:51:45;28.50;99.90
12833;DHT22;6483;51.310;4.462;2022-08-03T08:54:17;28.70;99.90
12833;DHT22;6483;51.310;4.462;2022-08-03T08:56:50;29.10;99.90
12833;DHT22;6483;51.310;4.462;2022-08-03T08:59:17;29.20;99.90
12833;DHT22;6483;51.310;4.462;2022-08-03T09:01:43;29.80;99.90
12833;DHT22;6483;51.310;4.462;2022-08-03T09:06:35;30.30;99.90
12833;DHT22;6483;51.310;4.462;2022-08-03T09:11:30;29.70;99.90
12833;DHT22;6483;51.310;4.462;2022-08-03T09:13:55;30.30;99.90
12833;DHT22;6483;51.310;4.462;2022-08-03T09:16:25;30.80;99.90
12833;DHT22;6483;51.310;4.462;2022-08-03T09:18:53;31.00;99.90
12833;DHT22;6483;51.310;4.462;2022-08-03T09:21:24;31.20;99.20
12833;DHT22;6483;51.310;4.462;2022-08-03T09:23:55;31.20;99.60
12833;DHT22;6483;51.310;4.462;2022-08-03T09:26:25;30.90;99.90
12833;DHT22;6483;51.310;4.462;2022-08-03T09:29:05;31.80;99.70
12833;DHT22;6483;51.310;4.462;2022-08-03T09:31:42;32.50;97.60
12833;DHT22;6483;51.310;4.462;2022-08-03T09:34:12;32.40;97.10
12833;DHT22;6483;51.310;4.462;2022-08-03T09:36:49;32.30;97.30
12833;DHT22;6483;51.310;4.462;2022-08-03T09:39:34;32.50;97.20
12833;DHT22;6483;51.310;4.462;2022-08-03T09:42:07;32.00;96.60
12833;DHT22;6483;51.310;4.462;2022-08-03T09:44:44;32.10;96.90
12833;DHT22;6483;51.310;4.462;2022-08-03T09:47:13;32.30;96.90
12833;DHT22;6483;51.310;4.462;2022-08-03T09:59:46;31.80;96.40
12833;DHT22;6483;51.310;4.462;2022-08-03T10:02:39;32.80;96.30
12833;DHT22;6483;51.310;4.462;2022-08-03T10:05:13;34.00;95.20
12833;DHT22;6483;51.310;4.462;2022-08-03T10:47:33;35.40;93.00
12833;DHT22;6483;51.310;4.462;2022-08-03T10:49:59;35.90;84.40
12833;DHT22;6483;51.310;4.462;2022-08-03T10:52:29;35.70;85.50
12833;DHT22;6483;51.310;4.462;2022-08-03T10:54:56;35.30;85.80
12833;DHT22;6483;51.310;4.462;2022-08-03T10:57:46;35.20;86.40
12833;DHT22;6483;51.310;4.462;2022-08-03T11:00:23;34.90;86.10
12833;DHT22;6483;51.310;4.462;2022-08-03T11:03:16;34.20;87.20
12833;DHT22;6483;51.310;4.462;2022-08-03T11:05:47;35.10;86.70
12833;DHT22;6483;51.310;4.462;2022-08-03T11:08:29;35.80;86.00
12833;DHT22;6483;51.310;4.462;2022-08-03T11:11:23;35.20;85.10
12833;DHT22;6483;51.310;4.462;2022-08-03T11:14:09;35.50;87.00
12833;DHT22;6483;51.310;4.462;2022-08-03T11:17:06;35.10;85.90
12833;DHT22;6483;51.310;4.462;2022-08-03T11:19:46;35.40;84.30
12833;DHT22;6483;51.310;4.462;2022-08-03T11:22:12;36.60;84.10
12833;DHT22;6483;51.310;4.462;2022-08-03T11:27:21;36.60;82.00
